Terminal Aerodrome Forecast
Issued by NWS

Current Version | Previous Version | Graphics & Text | Print | Product List | Glossary On
Versions: 1 2 3 4 5 6 7 8 9 10 11 12 13 14 15 16 17 18 19 20 21 22 23 24 25 26 27 28 29 30 31 32 33 34
000
FTUS41 KRNK 260520
TAFLWB
TAF
KLWB 260520Z 2606/2706 00000KT P6SM SKC
     FM260800 00000KT 1/4SM FG VV001
     FM261400 VRB03KT P6SM SCT030
     FM261800 12005KT P6SM FEW050
     FM262300 00000KT P6SM SKC=

USA.gov is the U.S. government's official web portal to all federal, state and local government web resources and services.